KAKH/AKH METAR and TAF weather

Enter ICAO airport designator
Station Type Date Time Source
KAKH METAR 2023/11/28 15:54 UTC NOAA

KAKH 281554Z AUTO 23005KT 10SM CLR 07/M05 A3012 RMK AO2 SLP203 T00721050


Station Type Date Time Source
KAKH Decoded METAR 2023/11/28 15:54 UTC NOAA

GASTONIA MUNICIPAL AIRPORT, NC, United States (KAKH) 35-12N 81-09W 243M
Nov 28, 2023 - 10:54 AM EST / 2023.11.28 1554 UTC
Wind: from the SW (230 degrees) at 6 MPH (5 KT):0
Visibility: 10 mile(s):0
Sky conditions: clear
Temperature: 45.0 F (7.2 C)
Dew Point: 23.0 F (-5.0 C)
Relative Humidity: 41%
Pressure (altimeter): 30.12 in. Hg (1019 hPa)
ob: KAKH 281554Z AUTO 23005KT 10SM CLR 07/M05 A3012 RMK AO2 SLP203 T00721050
cycle: 16

Station Type Date Time Source
KAKH TAF UTC NOAA

Error!

Example: see airport list